Time;durP1;ratioP1;P1;durP2;ratioP2;P2;SDS_P1;SDS_P2;PMS_P1;PMS_P2;Temp;Humidity;BMP_temperature;BMP_pressure;BME280_temperature;BME280_humidity;BME280_pressure;Samples;Min_cycle;Max_cycle;Signal;HPM_P1;HPM_P2
2023/09/12 00:01:10;;;;;;;21.33;18.05;;;22.40;86.30;;;;;;4971184;28;20046;-90
2023/09/12 00:03:37;;;;;;;22.98;17.48;;;22.30;86.70;;;;;;5003032;28;20458;-89
2023/09/12 00:06:04;;;;;;;18.27;14.75;;;22.20;87.00;;;;;;5010685;28;20120;-89
2023/09/12 00:08:30;;;;;;;16.50;14.07;;;22.20;87.30;;;;;;5009140;28;20021;-89
2023/09/12 00:11:10;;;;;;;21.65;16.17;;;22.10;87.50;;;;;;4995485;28;20079;-89
2023/09/12 00:13:37;;;;;;;20.60;15.52;;;22.20;87.50;;;;;;5004178;28;20018;-89
2023/09/12 00:16:03;;;;;;;19.77;15.18;;;22.20;87.30;;;;;;5010172;28;20029;-89
2023/09/12 00:18:29;;;;;;;17.92;14.55;;;22.20;87.00;;;;;;4999873;28;20027;-88
2023/09/12 00:20:54;;;;;;;19.25;15.70;;;22.30;86.90;;;;;;5008658;28;20495;-89
2023/09/12 00:23:21;;;;;;;14.98;12.82;;;22.40;86.80;;;;;;5009149;28;20026;-89
2023/09/12 00:25:47;;;;;;;17.33;14.52;;;22.40;86.40;;;;;;5009844;28;20042;-88
2023/09/12 00:28:13;;;;;;;15.98;13.48;;;22.40;86.20;;;;;;5009899;28;20161;-88
2023/09/12 00:30:38;;;;;;;16.08;13.27;;;22.40;86.10;;;;;;5006297;28;20022;-90
2023/09/12 00:33:04;;;;;;;16.63;13.13;;;22.40;86.10;;;;;;4999090;28;20390;-90
2023/09/12 00:35:29;;;;;;;19.60;15.65;;;22.40;86.00;;;;;;5004791;28;20117;-90
2023/09/12 00:37:55;;;;;;;17.02;14.07;;;22.40;85.90;;;;;;5004487;28;20022;-88
2023/09/12 00:40:21;;;;;;;19.70;15.07;;;22.30;86.10;;;;;;5013024;28;20083;-90
2023/09/12 00:42:47;;;;;;;17.33;13.23;;;22.20;86.30;;;;;;5002532;28;20057;-87
2023/09/12 00:45:12;;;;;;;16.67;13.48;;;22.20;86.20;;;;;;5003319;28;20060;-87
2023/09/12 00:47:38;;;;;;;16.05;12.85;;;22.10;86.40;;;;;;5002607;28;20259;-88
2023/09/12 00:50:05;;;;;;;21.95;17.10;;;22.10;86.50;;;;;;5009564;28;20022;-87
2023/09/12 00:52:33;;;;;;;21.75;17.27;;;22.00;87.10;;;;;;5005374;28;20036;-87
2023/09/12 00:54:58;;;;;;;18.00;15.15;;;21.90;87.50;;;;;;4996121;28;20018;-86
2023/09/12 00:57:26;;;;;;;16.92;14.38;;;21.90;87.80;;;;;;5006749;28;20022;-87
2023/09/12 00:59:52;;;;;;;17.58;14.90;;;21.90;88.10;;;;;;5010420;28;20105;-89
2023/09/12 01:02:19;;;;;;;16.02;13.45;;;21.90;88.20;;;;;;5008657;28;20077;-88
2023/09/12 01:04:46;;;;;;;19.23;16.13;;;21.90;88.20;;;;;;4999322;28;20026;-87
2023/09/12 01:07:11;;;;;;;18.38;14.23;;;21.80;88.50;;;;;;5006037;28;20098;-87
2023/09/12 01:09:37;;;;;;;15.82;12.95;;;21.90;88.50;;;;;;4997005;28;20113;-87
2023/09/12 01:12:03;;;;;;;21.73;15.38;;;21.90;88.40;;;;;;5007596;28;20065;-88
2023/09/12 01:14:30;;;;;;;18.23;14.50;;;22.00;88.10;;;;;;5008364;28;20022;-88
2023/09/12 01:16:56;;;;;;;16.42;12.73;;;22.00;88.00;;;;;;5008932;28;20026;-87
2023/09/12 01:19:22;;;;;;;16.65;14.00;;;22.00;87.80;;;;;;4995185;28;20022;-86
2023/09/12 01:22:11;;;;;;;16.05;13.55;;;22.10;87.50;;;;;;5002048;28;20317;-89
2023/09/12 01:25:27;;;;;;;16.20;13.95;;;22.10;87.30;;;;;;5000842;28;20027;-90
2023/09/12 01:27:53;;;;;;;16.52;12.73;;;22.10;87.00;;;;;;4983135;28;20034;-89
2023/09/12 01:30:22;;;;;;;17.00;12.95;;;22.00;87.10;;;;;;4994253;28;20034;-90
2023/09/12 01:32:49;;;;;;;18.30;14.45;;;22.00;87.20;;;;;;5002836;28;20061;-91
2023/09/12 01:35:15;;;;;;;17.75;14.23;;;22.00;87.10;;;;;;5009788;28;20026;-88
2023/09/12 01:37:40;;;;;;;15.60;12.90;;;22.00;87.10;;;;;;5000831;28;20053;-87
2023/09/12 01:40:07;;;;;;;18.25;13.98;;;21.90;87.20;;;;;;5003311;28;20513;-87
2023/09/12 01:42:45;;;;;;;15.63;12.30;;;21.90;87.20;;;;;;4999542;28;20026;-87
2023/09/12 01:45:13;;;;;;;15.88;11.50;;;21.90;87.30;;;;;;5002544;28;20069;-87
2023/09/12 01:47:41;;;;;;;16.05;12.60;;;21.80;87.40;;;;;;4998071;28;20041;-87
2023/09/12 01:50:09;;;;;;;16.75;13.68;;;21.80;87.40;;;;;;5008615;28;20041;-86
2023/09/12 01:52:35;;;;;;;14.68;12.48;;;21.80;87.40;;;;;;4991675;28;20036;-86
2023/09/12 01:55:02;;;;;;;13.73;11.63;;;21.80;87.50;;;;;;5009017;28;20123;-89
2023/09/12 01:57:28;;;;;;;15.50;12.43;;;21.70;87.40;;;;;;5008972;28;20394;-88
2023/09/12 01:59:54;;;;;;;13.77;10.88;;;21.80;87.30;;;;;;4993759;28;20026;-88
2023/09/12 02:02:19;;;;;;;13.38;11.32;;;21.80;87.10;;;;;;4995785;28;20027;-89
2023/09/12 02:04:54;;;;;;;16.80;11.93;;;21.70;87.00;;;;;;4997109;28;20366;-87
2023/09/12 02:07:22;;;;;;;13.80;11.50;;;21.70;86.80;;;;;;5006633;28;20022;-88
2023/09/12 02:09:47;;;;;;;14.18;12.18;;;21.70;86.80;;;;;;5004116;28;20018;-87
2023/09/12 02:12:13;;;;;;;13.00;10.52;;;21.60;87.00;;;;;;5006189;28;20036;-87
2023/09/12 02:14:38;;;;;;;15.27;11.77;;;21.60;87.10;;;;;;5003855;28;20049;-87
2023/09/12 02:17:04;;;;;;;13.90;10.70;;;21.60;87.00;;;;;;5005562;28;20410;-87
2023/09/12 02:19:29;;;;;;;14.75;11.57;;;21.60;87.00;;;;;;4997359;28;20022;-88
2023/09/12 02:21:55;;;;;;;12.60;11.13;;;21.60;87.00;;;;;;5005898;28;20044;-89
2023/09/12 02:24:21;;;;;;;14.43;11.13;;;21.60;86.80;;;;;;5009515;28;20370;-88
2023/09/12 02:26:47;;;;;;;14.23;11.52;;;21.60;86.80;;;;;;5000909;28;20026;-89
2023/09/12 02:29:12;;;;;;;14.48;10.82;;;21.60;86.60;;;;;;5008842;28;20103;-89
2023/09/12 02:31:38;;;;;;;14.77;12.13;;;21.60;86.50;;;;;;5004399;28;20584;-90
2023/09/12 02:34:04;;;;;;;14.38;11.10;;;21.60;86.60;;;;;;5000061;28;20022;-89
2023/09/12 02:36:29;;;;;;;14.38;11.25;;;21.50;86.80;;;;;;5004017;28;20018;-90
2023/09/12 02:38:55;;;;;;;12.45;11.13;;;21.40;86.90;;;;;;5000096;28;20375;-89
2023/09/12 02:41:20;;;;;;;12.77;9.65;;;21.40;86.90;;;;;;5006607;28;20037;-88
2023/09/12 02:43:46;;;;;;;12.13;10.23;;;21.40;87.10;;;;;;5000880;28;21373;-92
2023/09/12 02:46:11;;;;;;;12.88;10.80;;;21.30;87.10;;;;;;5006544;28;20030;-87
2023/09/12 02:48:37;;;;;;;14.25;12.02;;;21.30;87.00;;;;;;5005780;28;20034;-88
2023/09/12 02:51:03;;;;;;;13.65;11.18;;;21.30;86.80;;;;;;5011434;28;20037;-87
2023/09/12 02:53:28;;;;;;;12.80;10.82;;;21.30;86.80;;;;;;5010188;28;20076;-88
2023/09/12 02:55:54;;;;;;;14.10;11.32;;;21.30;86.70;;;;;;5004164;28;20513;-88
2023/09/12 02:58:19;;;;;;;14.73;11.98;;;21.30;86.50;;;;;;4999999;28;20034;-88
2023/09/12 03:00:45;;;;;;;15.43;11.00;;;21.30;86.50;;;;;;5005621;28;20034;-88
2023/09/12 03:03:11;;;;;;;13.48;11.88;;;21.20;86.60;;;;;;5008281;28;20118;-89
2023/09/12 03:05:36;;;;;;;13.40;11.02;;;21.20;86.90;;;;;;5011210;28;20457;-88
2023/09/12 03:08:03;;;;;;;12.05;10.38;;;21.10;87.10;;;;;;5008187;28;20053;-88
2023/09/12 03:10:29;;;;;;;13.57;11.15;;;21.20;87.10;;;;;;5005944;28;20088;-88
2023/09/12 03:12:54;;;;;;;12.65;10.80;;;21.20;87.00;;;;;;5011725;28;20017;-90
2023/09/12 03:15:20;;;;;;;13.30;11.40;;;21.20;86.90;;;;;;5008897;28;20030;-90
2023/09/12 03:17:45;;;;;;;14.52;11.60;;;21.20;86.80;;;;;;5004918;28;20033;-90
2023/09/12 03:20:11;;;;;;;12.18;10.52;;;21.10;86.70;;;;;;5011481;28;20045;-90
2023/09/12 03:22:37;;;;;;;14.48;10.95;;;21.10;86.90;;;;;;5006989;28;20553;-88
2023/09/12 03:25:04;;;;;;;12.32;9.60;;;21.10;87.50;;;;;;5004466;28;20025;-90
2023/09/12 03:27:29;;;;;;;12.15;9.80;;;21.10;86.90;;;;;;4996404;28;20088;-88
2023/09/12 03:29:55;;;;;;;14.20;10.88;;;21.10;86.90;;;;;;5009791;28;20022;-86
2023/09/12 03:32:21;;;;;;;13.98;11.15;;;21.10;86.90;;;;;;5006526;28;20038;-89
2023/09/12 03:34:46;;;;;;;12.18;10.50;;;21.00;87.20;;;;;;5001037;28;20025;-89
2023/09/12 03:37:13;;;;;;;11.50;9.48;;;21.00;87.30;;;;;;5004044;28;20509;-90
2023/09/12 03:39:44;;;;;;;13.43;11.00;;;21.00;87.30;;;;;;5013734;28;20474;-93
2023/09/12 03:42:10;;;;;;;15.43;12.17;;;21.00;87.30;;;;;;5022939;28;20026;-89
2023/09/12 03:44:35;;;;;;;14.55;11.48;;;21.00;87.20;;;;;;5012910;28;20033;-89
2023/09/12 03:47:01;;;;;;;13.18;10.75;;;21.00;87.20;;;;;;5011335;28;20025;-88
2023/09/12 03:49:28;;;;;;;12.75;9.82;;;21.00;87.30;;;;;;5009524;28;20061;-86
2023/09/12 03:51:54;;;;;;;15.52;11.40;;;21.00;87.50;;;;;;5002626;28;20108;-86
2023/09/12 03:54:19;;;;;;;12.23;10.68;;;21.00;87.50;;;;;;5000058;28;20609;-86
2023/09/12 03:56:45;;;;;;;12.85;10.35;;;20.90;87.70;;;;;;4994379;28;20186;-89
2023/09/12 03:59:11;;;;;;;11.63;9.90;;;20.90;87.70;;;;;;5011532;28;20037;-88
2023/09/12 04:01:37;;;;;;;12.40;10.30;;;21.00;87.70;;;;;;5009423;28;20041;-89
2023/09/12 04:04:03;;;;;;;14.55;11.45;;;21.00;87.60;;;;;;5008013;28;20034;-87
2023/09/12 04:06:29;;;;;;;11.18;9.75;;;21.00;87.50;;;;;;5003160;28;20101;-92
2023/09/12 04:08:54;;;;;;;12.25;9.57;;;21.00;87.50;;;;;;5007302;28;20022;-86
2023/09/12 04:11:20;;;;;;;13.77;10.45;;;21.00;87.40;;;;;;5005930;28;20022;-87
2023/09/12 04:13:45;;;;;;;13.02;10.82;;;21.00;87.30;;;;;;5002497;28;20014;-87
2023/09/12 04:16:11;;;;;;;14.68;11.38;;;21.00;87.30;;;;;;5001897;28;20486;-89
2023/09/12 04:18:37;;;;;;;14.23;11.35;;;21.00;87.50;;;;;;5009678;28;20025;-88
2023/09/12 04:21:02;;;;;;;12.25;10.23;;;21.00;87.70;;;;;;5003494;28;20025;-88
2023/09/12 04:23:28;;;;;;;15.38;11.90;;;20.90;87.90;;;;;;5002272;28;20789;-88
2023/09/12 04:25:54;;;;;;;15.88;12.15;;;20.90;87.90;;;;;;5008887;28;20143;-88
2023/09/12 04:28:19;;;;;;;13.13;10.35;;;21.00;87.90;;;;;;5010460;28;20055;-87
2023/09/12 04:30:45;;;;;;;11.57;10.18;;;21.00;87.70;;;;;;5002470;28;20031;-87
2023/09/12 04:33:10;;;;;;;14.57;11.57;;;21.00;87.70;;;;;;5005017;28;20018;-87
2023/09/12 04:35:36;;;;;;;13.60;11.32;;;21.10;87.60;;;;;;5011615;28;20119;-87
2023/09/12 04:38:02;;;;;;;22.08;12.52;;;21.10;87.60;;;;;;5008667;28;20117;-88
2023/09/12 04:40:28;;;;;;;24.65;14.65;;;21.10;87.60;;;;;;4999871;28;20394;-87
2023/09/12 04:42:54;;;;;;;22.33;15.25;;;21.10;88.00;;;;;;5008893;28;20022;-88
2023/09/12 04:45:19;;;;;;;20.73;15.00;;;21.10;88.20;;;;;;4993687;28;20026;-88
2023/09/12 04:47:45;;;;;;;29.60;15.77;;;21.10;89.00;;;;;;5025340;28;20482;-88
2023/09/12 04:50:11;;;;;;;28.38;15.52;;;21.20;88.60;;;;;;5009138;28;20501;-87
2023/09/12 04:52:37;;;;;;;30.13;15.00;;;21.20;88.60;;;;;;5003480;28;20026;-87
2023/09/12 04:55:03;;;;;;;27.27;13.35;;;21.10;88.80;;;;;;4997053;28;20018;-87
2023/09/12 04:57:30;;;;;;;27.80;13.45;;;21.20;89.00;;;;;;4999462;28;20038;-87
2023/09/12 04:59:58;;;;;;;33.63;14.65;;;21.20;89.30;;;;;;5007361;28;20018;-88
2023/09/12 05:02:24;;;;;;;32.40;16.02;;;21.10;89.50;;;;;;5004963;28;20026;-87
2023/09/12 05:04:50;;;;;;;30.35;14.43;;;21.10;89.80;;;;;;5000618;28;20022;-86
2023/09/12 05:07:16;;;;;;;44.58;15.93;;;21.10;90.00;;;;;;5008299;28;20026;-89
2023/09/12 05:09:42;;;;;;;24.17;16.27;;;21.10;90.10;;;;;;5013146;28;20511;-88
2023/09/12 05:12:08;;;;;;;22.48;13.60;;;21.10;90.20;;;;;;5006342;28;20060;-87
2023/09/12 05:14:33;;;;;;;30.08;16.58;;;21.20;90.30;;;;;;5006448;28;20557;-87
2023/09/12 05:16:59;;;;;;;69.50;17.15;;;21.20;90.10;;;;;;5001846;28;20036;-87
2023/09/12 05:19:26;;;;;;;30.55;17.45;;;21.20;90.20;;;;;;5005650;28;20033;-87
2023/09/12 05:21:52;;;;;;;36.22;17.00;;;21.20;90.20;;;;;;5003272;28;20056;-85
2023/09/12 05:24:17;;;;;;;44.13;18.25;;;21.20;90.20;;;;;;5002152;28;20030;-86
2023/09/12 05:26:43;;;;;;;37.53;16.45;;;21.20;90.30;;;;;;5001006;28;20029;-84
2023/09/12 05:29:09;;;;;;;29.27;17.15;;;21.20;90.40;;;;;;5006740;28;20029;-84
2023/09/12 05:31:34;;;;;;;35.35;19.50;;;21.20;90.50;;;;;;5008655;28;20018;-84
2023/09/12 05:34:00;;;;;;;27.80;18.30;;;21.20;90.60;;;;;;5005415;28;20571;-85
2023/09/12 05:36:26;;;;;;;31.10;18.85;;;21.20;90.60;;;;;;5006297;28;20025;-86
2023/09/12 05:38:51;;;;;;;23.15;16.30;;;21.20;90.70;;;;;;5015894;28;20069;-85
2023/09/12 05:41:17;;;;;;;25.15;15.85;;;21.30;90.70;;;;;;5016903;28;20083;-85
2023/09/12 05:43:42;;;;;;;21.80;16.38;;;21.30;90.70;;;;;;5015529;28;20097;-84
2023/09/12 05:46:08;;;;;;;28.67;19.13;;;21.30;90.60;;;;;;5015864;28;20030;-85
2023/09/12 05:48:37;;;;;;;30.38;19.00;;;21.30;90.60;;;;;;5013963;28;20037;-86
2023/09/12 05:51:11;;;;;;;30.25;20.45;;;21.30;90.70;;;;;;5016507;28;21760;-85
2023/09/12 05:57:03;;;;;;;30.38;22.08;;;21.30;90.80;;;;;;5004738;28;20446;-86
2023/09/12 05:59:37;;;;;;;26.65;19.58;;;21.30;90.90;;;;;;5004943;28;20030;-86
2023/09/12 06:02:04;;;;;;;23.85;17.35;;;21.30;91.00;;;;;;5000299;28;20053;-86
2023/09/12 06:04:29;;;;;;;23.95;18.05;;;21.40;91.00;;;;;;5007592;28;20095;-86
2023/09/12 06:06:55;;;;;;;28.55;20.58;;;21.40;91.00;;;;;;4999303;28;20482;-86
2023/09/12 06:09:20;;;;;;;31.00;22.10;;;21.40;90.90;;;;;;5008915;28;20437;-86
2023/09/12 06:11:46;;;;;;;25.92;19.17;;;21.40;90.90;;;;;;5006099;28;20426;-87
2023/09/12 06:14:12;;;;;;;34.63;20.05;;;21.40;90.90;;;;;;5012289;28;20025;-87
2023/09/12 06:16:40;;;;;;;27.63;20.15;;;21.50;90.90;;;;;;5017883;28;20386;-87
2023/09/12 06:19:06;;;;;;;28.48;19.95;;;21.50;91.20;;;;;;5014171;28;20038;-86
2023/09/12 06:21:32;;;;;;;28.42;20.60;;;21.50;90.90;;;;;;5015193;28;20030;-87
2023/09/12 06:24:15;;;;;;;30.48;22.35;;;21.60;90.90;;;;;;5011184;28;20120;-87
2023/09/12 06:26:41;;;;;;;29.05;21.38;;;21.50;91.00;;;;;;5010937;28;20029;-87
2023/09/12 06:29:07;;;;;;;31.30;22.70;;;21.50;91.00;;;;;;5008135;28;20030;-86
2023/09/12 06:31:33;;;;;;;30.88;20.77;;;21.50;91.10;;;;;;5013179;28;20470;-88
2023/09/12 06:33:59;;;;;;;30.58;23.02;;;21.50;91.10;;;;;;5011831;28;20022;-87
2023/09/12 06:36:25;;;;;;;29.75;19.45;;;21.50;91.10;;;;;;5005856;28;20025;-88
2023/09/12 06:38:51;;;;;;;60.25;29.45;;;21.60;91.00;;;;;;5025073;28;20108;-88
2023/09/12 06:41:20;;;;;;;35.88;25.40;;;21.50;91.10;;;;;;5012863;28;20054;-87
2023/09/12 06:43:46;;;;;;;38.08;26.52;;;21.40;91.30;;;;;;5024760;28;20116;-87
2023/09/12 06:46:12;;;;;;;32.72;23.02;;;21.40;91.40;;;;;;5004186;28;20058;-87
2023/09/12 06:48:37;;;;;;;31.35;22.23;;;21.40;91.50;;;;;;5014504;28;20509;-87
2023/09/12 06:51:08;;;;;;;29.60;20.98;;;21.40;91.70;;;;;;5009262;28;20466;-88
2023/09/12 06:53:34;;;;;;;34.08;23.75;;;21.50;91.40;;;;;;5007218;28;20057;-89
2023/09/12 06:56:00;;;;;;;34.08;24.02;;;21.50;91.40;;;;;;5005965;28;20058;-88
2023/09/12 06:58:25;;;;;;;28.15;20.05;;;21.50;91.50;;;;;;5004876;28;20036;-89
2023/09/12 07:00:51;;;;;;;32.78;22.58;;;21.50;91.50;;;;;;5021955;28;20025;-88
2023/09/12 07:03:17;;;;;;;28.42;20.48;;;21.50;91.50;;;;;;5009312;28;20021;-89
2023/09/12 07:05:43;;;;;;;28.40;20.17;;;21.50;91.40;;;;;;5003010;28;20556;-89
2023/09/12 07:08:09;;;;;;;28.85;20.77;;;21.60;91.40;;;;;;5004463;28;20026;-88
2023/09/12 07:10:35;;;;;;;29.90;21.55;;;21.60;91.30;;;;;;5003817;28;20023;-88
2023/09/12 07:13:01;;;;;;;31.55;21.95;;;21.60;91.20;;;;;;5009518;28;20101;-89
2023/09/12 07:15:36;;;;;;;27.73;18.88;;;21.70;91.20;;;;;;5011262;28;20048;-89
2023/09/12 07:18:02;;;;;;;30.00;20.67;;;21.70;91.10;;;;;;5030838;28;20401;-89
2023/09/12 07:20:27;;;;;;;27.20;19.80;;;21.80;91.00;;;;;;5010304;28;20117;-89
2023/09/12 07:22:53;;;;;;;28.80;21.15;;;21.80;90.90;;;;;;5008522;28;20367;-88
2023/09/12 07:25:20;;;;;;;26.63;19.45;;;21.90;90.80;;;;;;5001731;28;20045;-87
2023/09/12 07:27:46;;;;;;;23.80;17.60;;;22.00;90.80;;;;;;5019653;28;20116;-87
2023/09/12 07:30:12;;;;;;;28.38;20.92;;;22.00;90.70;;;;;;5012666;28;20133;-87
2023/09/12 07:32:37;;;;;;;25.58;18.98;;;22.00;90.70;;;;;;5013203;28;20390;-87
2023/09/12 07:35:03;;;;;;;27.90;20.02;;;22.10;90.80;;;;;;5016472;28;20127;-86
2023/09/12 07:37:29;;;;;;;31.25;23.00;;;22.10;90.70;;;;;;5010763;28;20026;-89
2023/09/12 07:39:54;;;;;;;30.40;22.30;;;22.00;90.70;;;;;;5008556;28;20675;-84
2023/09/12 07:42:24;;;;;;;28.40;21.80;;;22.00;90.70;;;;;;5011805;28;20057;-84
2023/09/12 07:44:56;;;;;;;30.25;21.45;;;22.00;90.80;;;;;;5006146;28;20036;-88
2023/09/12 07:47:22;;;;;;;30.25;23.35;;;22.00;90.70;;;;;;5008580;28;20030;-85
2023/09/12 07:49:53;;;;;;;31.85;23.33;;;22.00;90.90;;;;;;5019488;28;20025;-88
2023/09/12 07:52:19;;;;;;;30.73;22.85;;;21.90;90.70;;;;;;5007390;28;20116;-85
2023/09/12 07:54:45;;;;;;;40.72;28.75;;;21.90;90.70;;;;;;5002236;28;20533;-85
2023/09/12 07:57:10;;;;;;;35.28;24.48;;;21.90;90.80;;;;;;5006501;28;20049;-85
2023/09/12 07:59:36;;;;;;;38.38;26.30;;;21.80;90.90;;;;;;5008896;28;20032;-87
2023/09/12 08:02:02;;;;;;;32.53;23.88;;;21.80;91.10;;;;;;5000827;28;20017;-85
2023/09/12 08:04:27;;;;;;;39.05;27.13;;;21.90;91.10;;;;;;5005389;28;20034;-85
2023/09/12 08:06:53;;;;;;;28.70;22.27;;;21.90;91.10;;;;;;5009845;28;21899;-85
2023/09/12 08:09:19;;;;;;;28.33;19.27;;;22.00;91.10;;;;;;5021467;28;20032;-86
2023/09/12 08:11:44;;;;;;;29.20;20.17;;;22.10;91.00;;;;;;5008459;28;20022;-87
2023/09/12 08:14:10;;;;;;;32.63;21.42;;;22.20;90.80;;;;;;5003546;28;20057;-85
2023/09/12 08:16:35;;;;;;;27.23;20.05;;;22.30;90.70;;;;;;5002493;28;20013;-86
2023/09/12 08:19:01;;;;;;;28.05;20.38;;;22.30;90.60;;;;;;5010923;28;20018;-86
2023/09/12 08:21:27;;;;;;;27.90;20.67;;;22.50;90.50;;;;;;4999437;28;20426;-86
2023/09/12 08:23:52;;;;;;;28.88;21.15;;;22.70;90.20;;;;;;5015160;28;20030;-85
2023/09/12 08:26:18;;;;;;;30.70;21.30;;;22.90;90.00;;;;;;4999695;28;20018;-86
2023/09/12 08:28:44;;;;;;;27.60;21.05;;;22.90;89.60;;;;;;5004956;28;20026;-86
2023/09/12 08:31:09;;;;;;;26.33;19.17;;;22.80;89.50;;;;;;5022791;28;20441;-86
2023/09/12 08:33:35;;;;;;;25.45;18.73;;;22.90;89.50;;;;;;5004658;28;20022;-86
2023/09/12 08:36:00;;;;;;;26.27;18.52;;;23.00;89.20;;;;;;5005704;28;20069;-86
2023/09/12 08:38:26;;;;;;;25.98;19.08;;;23.10;88.80;;;;;;5006845;28;20033;-85
2023/09/12 08:40:52;;;;;;;26.45;18.52;;;23.20;88.50;;;;;;5010845;28;20470;-86
2023/09/12 08:43:19;;;;;;;26.33;19.27;;;23.30;88.80;;;;;;5003480;28;20088;-86
2023/09/12 08:45:46;;;;;;;23.90;16.55;;;23.40;87.90;;;;;;5009441;28;20042;-85
2023/09/12 08:48:12;;;;;;;22.95;16.80;;;23.60;87.60;;;;;;5006389;28;20462;-86
2023/09/12 08:50:38;;;;;;;24.98;16.80;;;23.70;87.20;;;;;;5008418;28;20068;-86
2023/09/12 08:53:04;;;;;;;22.58;16.90;;;23.80;87.00;;;;;;5002749;28;20050;-86
2023/09/12 08:55:33;;;;;;;22.27;16.75;;;24.00;86.40;;;;;;5001068;28;20033;-86
2023/09/12 08:57:59;;;;;;;22.98;16.73;;;24.10;86.00;;;;;;5007121;28;20126;-86
2023/09/12 09:00:27;;;;;;;19.65;14.70;;;24.10;85.70;;;;;;5007424;28;20029;-85
2023/09/12 09:02:53;;;;;;;20.70;13.95;;;24.10;85.40;;;;;;4999802;28;20023;-85
2023/09/12 09:05:22;;;;;;;22.30;15.55;;;24.10;85.10;;;;;;5000815;28;20041;-85
2023/09/12 09:07:48;;;;;;;21.88;15.70;;;24.10;85.00;;;;;;5002765;28;20032;-86
2023/09/12 09:10:19;;;;;;;21.60;15.40;;;23.90;84.90;;;;;;5008757;28;20076;-85
2023/09/12 09:12:46;;;;;;;21.60;15.68;;;23.90;85.00;;;;;;5000463;28;20491;-85
2023/09/12 09:15:29;;;;;;;19.35;14.98;;;23.90;84.80;;;;;;5000979;28;20026;-87
2023/09/12 09:17:57;;;;;;;21.75;15.32;;;23.90;84.70;;;;;;5008106;28;20022;-85
2023/09/12 09:20:30;;;;;;;20.00;13.93;;;23.90;84.60;;;;;;5003490;28;20019;-86
2023/09/12 09:23:09;;;;;;;19.83;14.60;;;23.90;84.50;;;;;;5008552;28;20033;-85
2023/09/12 09:25:39;;;;;;;16.92;12.68;;;23.80;84.10;;;;;;5013793;28;20029;-85
2023/09/12 09:28:06;;;;;;;18.08;13.48;;;23.90;83.80;;;;;;5003461;28;20018;-88
2023/09/12 09:30:42;;;;;;;18.90;14.23;;;24.00;83.60;;;;;;5002825;28;20514;-85
2023/09/12 09:33:09;;;;;;;18.85;13.00;;;24.00;83.20;;;;;;5005943;28;20030;-84
2023/09/12 09:35:35;;;;;;;17.00;13.00;;;24.10;82.60;;;;;;5005645;28;20490;-84
2023/09/12 09:38:02;;;;;;;17.65;12.75;;;24.00;82.00;;;;;;5008136;28;20169;-85
2023/09/12 09:40:28;;;;;;;14.63;10.77;;;24.10;82.10;;;;;;5006571;28;20373;-84
2023/09/12 09:43:00;;;;;;;18.13;14.40;;;24.20;82.00;;;;;;5009641;28;20037;-85
2023/09/12 09:45:26;;;;;;;18.70;13.18;;;24.30;81.80;;;;;;5001427;28;20509;-85
2023/09/12 09:47:52;;;;;;;15.48;11.60;;;24.40;81.60;;;;;;5010254;28;20475;-84
2023/09/12 09:50:17;;;;;;;16.77;11.88;;;24.50;81.40;;;;;;5016354;28;20029;-84
2023/09/12 09:52:44;;;;;;;13.38;10.18;;;24.60;80.90;;;;;;5013545;28;20037;-85
2023/09/12 09:55:15;;;;;;;21.13;15.70;;;24.80;80.60;;;;;;5011866;28;20037;-85
2023/09/12 09:57:41;;;;;;;16.65;12.85;;;24.90;79.40;;;;;;5010852;28;20033;-84
2023/09/12 10:00:14;;;;;;;18.30;13.65;;;24.80;78.90;;;;;;5012512;28;20027;-84
2023/09/12 10:02:40;;;;;;;17.20;13.13;;;24.60;78.00;;;;;;5008195;28;20156;-84
2023/09/12 10:05:11;;;;;;;14.82;10.95;;;24.60;78.20;;;;;;5009597;28;20021;-84
2023/09/12 10:07:39;;;;;;;13.38;10.48;;;24.70;78.30;;;;;;5017958;28;20402;-84
2023/09/12 10:10:05;;;;;;;15.18;12.15;;;24.80;78.00;;;;;;5010322;28;20073;-84
2023/09/12 10:12:33;;;;;;;16.77;13.18;;;24.90;78.10;;;;;;5016094;28;20029;-85
2023/09/12 10:15:00;;;;;;;13.60;10.68;;;25.00;77.70;;;;;;5011120;28;20018;-85
2023/09/12 10:17:33;;;;;;;15.20;12.27;;;25.10;77.20;;;;;;5009505;28;20037;-84
2023/09/12 10:20:09;;;;;;;15.40;11.82;;;25.10;76.00;;;;;;5010129;28;20104;-85
2023/09/12 10:22:41;;;;;;;14.27;11.77;;;25.10;75.30;;;;;;5011356;28;20037;-84
2023/09/12 10:25:08;;;;;;;13.07;9.82;;;25.10;74.60;;;;;;5009273;28;20030;-84
2023/09/12 10:27:34;;;;;;;13.27;9.82;;;25.10;74.90;;;;;;5007515;28;20036;-83
2023/09/12 10:30:02;;;;;;;11.32;9.15;;;25.20;74.60;;;;;;5012495;28;20036;-83
2023/09/12 10:32:30;;;;;;;18.33;14.57;;;25.30;74.50;;;;;;5010273;28;20034;-84
2023/09/12 10:34:58;;;;;;;14.27;11.85;;;25.30;74.10;;;;;;5015409;28;20026;-84
2023/09/12 10:37:25;;;;;;;15.52;12.13;;;25.30;74.10;;;;;;5012746;28;21475;-82
2023/09/12 10:39:53;;;;;;;12.32;9.20;;;25.20;73.60;;;;;;5010413;28;20026;-84
2023/09/12 10:42:20;;;;;;;11.63;9.45;;;25.20;73.90;;;;;;5008138;28;20455;-83
2023/09/12 10:44:46;;;;;;;12.63;9.73;;;25.30;74.00;;;;;;5012750;28;20029;-83
2023/09/12 10:47:13;;;;;;;12.80;9.40;;;25.40;74.10;;;;;;5013745;28;20394;-83
2023/09/12 10:49:43;;;;;;;10.13;7.55;;;25.40;73.60;;;;;;5007801;28;20026;-83
2023/09/12 10:52:08;;;;;;;11.85;9.10;;;25.50;73.60;;;;;;4998485;28;20026;-83
2023/09/12 10:54:39;;;;;;;13.68;11.68;;;25.60;73.50;;;;;;4998475;28;20394;-83
2023/09/12 10:57:16;;;;;;;12.75;10.63;;;25.50;72.70;;;;;;5001714;28;20393;-83
2023/09/12 10:59:59;;;;;;;12.23;10.07;;;25.60;72.70;;;;;;5006813;28;20029;-83
2023/09/12 11:02:34;;;;;;;11.73;9.68;;;25.70;72.50;;;;;;5027993;28;20389;-82
2023/09/12 11:05:04;;;;;;;11.00;8.55;;;25.80;72.40;;;;;;5014893;28;20021;-83
2023/09/12 11:07:36;;;;;;;13.95;10.65;;;25.90;72.10;;;;;;5008713;28;20457;-83
2023/09/12 11:10:15;;;;;;;12.48;9.50;;;26.00;71.50;;;;;;5027655;28;20042;-84
2023/09/12 11:12:41;;;;;;;12.23;10.23;;;26.00;70.90;;;;;;5003830;28;20031;-83
2023/09/12 11:15:09;;;;;;;14.43;11.15;;;26.00;70.40;;;;;;5019747;28;20030;-84
2023/09/12 11:17:39;;;;;;;10.88;7.63;;;26.00;70.20;;;;;;5007931;28;20250;-83
2023/09/12 11:20:12;;;;;;;10.90;7.63;;;26.10;70.60;;;;;;5004721;28;20034;-82
2023/09/12 11:22:45;;;;;;;9.32;6.82;;;26.30;70.30;;;;;;5006746;28;20034;-83
2023/09/12 11:25:22;;;;;;;8.02;6.15;;;26.50;70.20;;;;;;5009195;28;20027;-83
2023/09/12 11:27:54;;;;;;;13.02;9.10;;;26.70;70.10;;;;;;5002438;28;20522;-83
2023/09/12 11:30:34;;;;;;;9.07;6.63;;;26.70;68.70;;;;;;5005750;28;20030;-84
2023/09/12 11:33:04;;;;;;;8.50;6.15;;;26.80;69.10;;;;;;5005174;28;20076;-83
2023/09/12 11:35:35;;;;;;;9.40;6.32;;;26.90;68.90;;;;;;5010379;28;20022;-83
2023/09/12 11:38:02;;;;;;;7.38;5.30;;;27.10;68.40;;;;;;5022307;28;20026;-83
2023/09/12 11:40:34;;;;;;;6.47;4.63;;;27.10;67.90;;;;;;5012680;28;20084;-83
2023/09/12 11:43:00;;;;;;;6.50;5.00;;;27.10;67.80;;;;;;5007367;28;20036;-83
2023/09/12 11:45:25;;;;;;;5.88;4.28;;;27.20;67.40;;;;;;5006525;28;20021;-83
2023/09/12 11:47:51;;;;;;;6.18;4.30;;;27.30;67.10;;;;;;5011634;28;20029;-83
2023/09/12 11:50:38;;;;;;;6.88;5.18;;;27.30;66.70;;;;;;5011415;28;20093;-83
2023/09/12 11:53:09;;;;;;;8.68;5.53;;;27.30;66.30;;;;;;5012810;28;20026;-83
2023/09/12 11:55:36;;;;;;;8.07;5.75;;;27.40;66.20;;;;;;5013167;28;20074;-84
2023/09/12 11:58:03;;;;;;;5.85;4.35;;;27.40;65.40;;;;;;5015385;28;20041;-83
2023/09/12 12:00:29;;;;;;;9.45;6.10;;;27.50;65.50;;;;;;5014588;28;20026;-83
2023/09/12 12:02:55;;;;;;;7.30;5.40;;;27.40;64.40;;;;;;5010663;28;20363;-83
2023/09/12 12:05:21;;;;;;;6.50;4.68;;;27.50;65.00;;;;;;5010268;28;20025;-83
2023/09/12 12:07:48;;;;;;;6.90;4.90;;;27.60;64.90;;;;;;5011643;28;20030;-84
2023/09/12 12:10:14;;;;;;;7.63;4.70;;;27.80;64.60;;;;;;5006650;28;20122;-84
2023/09/12 12:12:42;;;;;;;5.93;4.10;;;28.00;64.30;;;;;;5012892;28;20042;-84
2023/09/12 12:15:13;;;;;;;8.07;4.82;;;28.20;63.90;;;;;;5012377;28;20046;-84
2023/09/12 12:17:41;;;;;;;5.90;4.65;;;28.20;62.90;;;;;;5009794;28;20034;-83
2023/09/12 12:20:11;;;;;;;6.80;5.18;;;28.20;63.60;;;;;;5008172;28;20032;-83
2023/09/12 12:22:40;;;;;;;6.72;4.60;;;28.20;63.70;;;;;;5011133;28;20037;-83
2023/09/12 12:25:10;;;;;;;7.55;4.60;;;28.10;64.10;;;;;;5012275;28;20060;-83
2023/09/12 12:27:40;;;;;;;6.65;5.22;;;28.10;64.10;;;;;;5007202;28;20061;-83
2023/09/12 12:30:08;;;;;;;6.50;5.20;;;28.20;64.20;;;;;;5010692;28;20026;-84
2023/09/12 12:32:34;;;;;;;8.40;5.00;;;28.30;64.10;;;;;;5013126;28;20026;-84
2023/09/12 12:34:59;;;;;;;8.18;5.53;;;28.30;64.10;;;;;;5016977;28;20481;-83